sensor_id;sensor_type;location;lat;lon;timestamp;P1;durP1;ratioP1;P2;durP2;ratioP2
18905;SDS011;9585;51.018;4.282;2023-07-20T00:01:21;4.22;;;2.47;;
18905;SDS011;9585;51.018;4.282;2023-07-20T00:03:49;5.13;;;2.97;;
18905;SDS011;9585;51.018;4.282;2023-07-20T00:06:21;3.92;;;3.00;;
18905;SDS011;9585;51.018;4.282;2023-07-20T00:08:50;4.78;;;2.72;;
18905;SDS011;9585;51.018;4.282;2023-07-20T00:11:18;3.65;;;3.08;;
18905;SDS011;9585;51.018;4.282;2023-07-20T00:13:45;3.25;;;2.67;;
18905;SDS011;9585;51.018;4.282;2023-07-20T00:16:13;2.83;;;2.50;;
18905;SDS011;9585;51.018;4.282;2023-07-20T00:18:41;3.28;;;2.58;;
18905;SDS011;9585;51.018;4.282;2023-07-20T00:21:09;3.13;;;2.58;;
18905;SDS011;9585;51.018;4.282;2023-07-20T00:23:38;3.80;;;2.50;;
18905;SDS011;9585;51.018;4.282;2023-07-20T00:26:06;5.05;;;2.88;;
18905;SDS011;9585;51.018;4.282;2023-07-20T00:28:34;4.50;;;2.95;;
18905;SDS011;9585;51.018;4.282;2023-07-20T00:31:01;4.78;;;3.15;;
18905;SDS011;9585;51.018;4.282;2023-07-20T00:33:29;4.55;;;2.85;;
18905;SDS011;9585;51.018;4.282;2023-07-20T00:35:57;4.13;;;2.65;;
18905;SDS011;9585;51.018;4.282;2023-07-20T00:38:24;3.22;;;2.72;;
18905;SDS011;9585;51.018;4.282;2023-07-20T00:40:53;4.18;;;2.72;;
18905;SDS011;9585;51.018;4.282;2023-07-20T00:43:21;4.50;;;2.80;;
18905;SDS011;9585;51.018;4.282;2023-07-20T00:45:48;5.55;;;3.30;;
18905;SDS011;9585;51.018;4.282;2023-07-20T00:48:16;3.90;;;2.95;;
18905;SDS011;9585;51.018;4.282;2023-07-20T00:50:43;5.35;;;2.97;;
18905;SDS011;9585;51.018;4.282;2023-07-20T00:53:12;4.07;;;2.63;;
18905;SDS011;9585;51.018;4.282;2023-07-20T00:55:39;4.28;;;3.05;;
18905;SDS011;9585;51.018;4.282;2023-07-20T00:58:08;4.43;;;3.42;;
18905;SDS011;9585;51.018;4.282;2023-07-20T01:00:39;4.20;;;3.50;;
18905;SDS011;9585;51.018;4.282;2023-07-20T01:03:06;3.67;;;3.17;;
18905;SDS011;9585;51.018;4.282;2023-07-20T01:05:37;5.05;;;3.20;;
18905;SDS011;9585;51.018;4.282;2023-07-20T01:08:11;8.32;;;3.83;;
18905;SDS011;9585;51.018;4.282;2023-07-20T01:10:43;4.55;;;3.15;;
18905;SDS011;9585;51.018;4.282;2023-07-20T01:13:17;4.45;;;3.40;;
18905;SDS011;9585;51.018;4.282;2023-07-20T01:15:49;3.95;;;3.08;;
18905;SDS011;9585;51.018;4.282;2023-07-20T01:18:17;3.70;;;2.83;;
18905;SDS011;9585;51.018;4.282;2023-07-20T01:20:44;3.40;;;2.92;;
18905;SDS011;9585;51.018;4.282;2023-07-20T01:23:30;3.80;;;3.20;;
18905;SDS011;9585;51.018;4.282;2023-07-20T01:29:36;4.18;;;3.00;;
18905;SDS011;9585;51.018;4.282;2023-07-20T01:32:16;6.32;;;3.17;;
18905;SDS011;9585;51.018;4.282;2023-07-20T01:34:45;3.72;;;3.10;;
18905;SDS011;9585;51.018;4.282;2023-07-20T01:37:15;4.05;;;3.13;;
18905;SDS011;9585;51.018;4.282;2023-07-20T01:39:45;4.03;;;3.10;;
18905;SDS011;9585;51.018;4.282;2023-07-20T01:42:13;4.28;;;3.00;;
18905;SDS011;9585;51.018;4.282;2023-07-20T01:44:41;3.65;;;3.20;;
18905;SDS011;9585;51.018;4.282;2023-07-20T01:47:09;7.78;;;4.00;;
18905;SDS011;9585;51.018;4.282;2023-07-20T01:49:38;5.78;;;3.53;;
18905;SDS011;9585;51.018;4.282;2023-07-20T01:52:06;6.20;;;3.70;;
18905;SDS011;9585;51.018;4.282;2023-07-20T01:54:34;5.05;;;3.63;;
18905;SDS011;9585;51.018;4.282;2023-07-20T01:57:02;5.28;;;3.85;;
18905;SDS011;9585;51.018;4.282;2023-07-20T01:59:30;5.20;;;3.58;;
18905;SDS011;9585;51.018;4.282;2023-07-20T02:01:57;5.88;;;3.58;;
18905;SDS011;9585;51.018;4.282;2023-07-20T02:04:25;5.50;;;3.80;;
18905;SDS011;9585;51.018;4.282;2023-07-20T02:06:54;5.25;;;4.20;;
18905;SDS011;9585;51.018;4.282;2023-07-20T02:09:21;6.57;;;3.83;;
18905;SDS011;9585;51.018;4.282;2023-07-20T02:11:49;6.70;;;4.10;;
18905;SDS011;9585;51.018;4.282;2023-07-20T02:14:16;4.32;;;3.28;;
18905;SDS011;9585;51.018;4.282;2023-07-20T02:16:44;3.92;;;3.17;;
18905;SDS011;9585;51.018;4.282;2023-07-20T02:19:14;5.82;;;3.60;;
18905;SDS011;9585;51.018;4.282;2023-07-20T02:21:41;5.70;;;3.78;;
18905;SDS011;9585;51.018;4.282;2023-07-20T02:24:11;6.13;;;4.07;;
18905;SDS011;9585;51.018;4.282;2023-07-20T02:26:39;6.60;;;4.38;;
18905;SDS011;9585;51.018;4.282;2023-07-20T02:29:07;7.13;;;4.28;;
18905;SDS011;9585;51.018;4.282;2023-07-20T02:31:36;4.38;;;3.80;;
18905;SDS011;9585;51.018;4.282;2023-07-20T02:34:04;5.95;;;4.00;;
18905;SDS011;9585;51.018;4.282;2023-07-20T02:36:32;5.68;;;4.07;;
18905;SDS011;9585;51.018;4.282;2023-07-20T02:38:59;5.68;;;3.95;;
18905;SDS011;9585;51.018;4.282;2023-07-20T02:41:30;7.75;;;4.47;;
18905;SDS011;9585;51.018;4.282;2023-07-20T02:43:59;6.90;;;4.90;;
18905;SDS011;9585;51.018;4.282;2023-07-20T02:46:27;6.28;;;4.63;;
18905;SDS011;9585;51.018;4.282;2023-07-20T02:48:55;4.97;;;4.15;;
18905;SDS011;9585;51.018;4.282;2023-07-20T02:51:22;5.20;;;4.03;;
18905;SDS011;9585;51.018;4.282;2023-07-20T02:53:50;6.07;;;4.15;;
18905;SDS011;9585;51.018;4.282;2023-07-20T02:56:17;6.13;;;4.82;;
18905;SDS011;9585;51.018;4.282;2023-07-20T02:58:46;6.68;;;4.47;;
18905;SDS011;9585;51.018;4.282;2023-07-20T03:01:14;6.13;;;4.40;;
18905;SDS011;9585;51.018;4.282;2023-07-20T03:03:41;5.60;;;4.07;;
18905;SDS011;9585;51.018;4.282;2023-07-20T03:06:11;6.35;;;4.40;;
18905;SDS011;9585;51.018;4.282;2023-07-20T03:08:39;4.93;;;3.72;;
18905;SDS011;9585;51.018;4.282;2023-07-20T03:11:13;5.25;;;3.80;;
18905;SDS011;9585;51.018;4.282;2023-07-20T03:13:41;4.95;;;4.05;;
18905;SDS011;9585;51.018;4.282;2023-07-20T03:16:11;5.30;;;4.07;;
18905;SDS011;9585;51.018;4.282;2023-07-20T03:18:41;6.05;;;4.20;;
18905;SDS011;9585;51.018;4.282;2023-07-20T03:21:09;9.43;;;5.68;;
18905;SDS011;9585;51.018;4.282;2023-07-20T03:23:37;6.18;;;5.05;;
18905;SDS011;9585;51.018;4.282;2023-07-20T03:26:05;7.97;;;5.75;;
18905;SDS011;9585;51.018;4.282;2023-07-20T03:28:34;9.13;;;6.35;;
18905;SDS011;9585;51.018;4.282;2023-07-20T03:31:01;8.18;;;5.38;;
18905;SDS011;9585;51.018;4.282;2023-07-20T03:33:30;6.97;;;5.15;;
18905;SDS011;9585;51.018;4.282;2023-07-20T03:35:59;12.25;;;6.57;;
18905;SDS011;9585;51.018;4.282;2023-07-20T03:38:26;13.25;;;7.32;;
18905;SDS011;9585;51.018;4.282;2023-07-20T03:40:55;7.90;;;5.95;;
18905;SDS011;9585;51.018;4.282;2023-07-20T03:43:24;10.48;;;7.07;;
18905;SDS011;9585;51.018;4.282;2023-07-20T03:45:53;9.45;;;6.57;;
18905;SDS011;9585;51.018;4.282;2023-07-20T03:48:22;6.97;;;6.25;;
18905;SDS011;9585;51.018;4.282;2023-07-20T03:50:52;12.60;;;7.90;;
18905;SDS011;9585;51.018;4.282;2023-07-20T03:53:20;10.40;;;6.43;;
18905;SDS011;9585;51.018;4.282;2023-07-20T03:55:48;9.85;;;7.07;;
18905;SDS011;9585;51.018;4.282;2023-07-20T03:58:16;8.73;;;6.05;;
18905;SDS011;9585;51.018;4.282;2023-07-20T04:00:44;9.77;;;7.38;;
18905;SDS011;9585;51.018;4.282;2023-07-20T04:03:12;9.75;;;6.22;;
18905;SDS011;9585;51.018;4.282;2023-07-20T04:05:40;8.60;;;5.40;;
18905;SDS011;9585;51.018;4.282;2023-07-20T04:08:10;6.50;;;5.00;;
18905;SDS011;9585;51.018;4.282;2023-07-20T04:10:37;10.38;;;7.05;;
18905;SDS011;9585;51.018;4.282;2023-07-20T04:13:05;6.22;;;5.13;;
18905;SDS011;9585;51.018;4.282;2023-07-20T04:15:33;8.27;;;6.57;;
18905;SDS011;9585;51.018;4.282;2023-07-20T04:18:01;8.93;;;6.40;;
18905;SDS011;9585;51.018;4.282;2023-07-20T04:20:29;10.13;;;7.03;;
18905;SDS011;9585;51.018;4.282;2023-07-20T04:22:57;9.75;;;7.75;;
18905;SDS011;9585;51.018;4.282;2023-07-20T04:25:27;9.55;;;7.82;;
18905;SDS011;9585;51.018;4.282;2023-07-20T04:27:56;9.90;;;7.35;;
18905;SDS011;9585;51.018;4.282;2023-07-20T04:30:24;12.95;;;8.60;;
18905;SDS011;9585;51.018;4.282;2023-07-20T04:32:51;11.55;;;8.20;;
18905;SDS011;9585;51.018;4.282;2023-07-20T04:35:44;9.13;;;7.25;;
18905;SDS011;9585;51.018;4.282;2023-07-20T04:38:15;15.00;;;8.25;;
18905;SDS011;9585;51.018;4.282;2023-07-20T04:40:45;11.93;;;8.70;;
18905;SDS011;9585;51.018;4.282;2023-07-20T04:43:13;10.63;;;8.30;;
18905;SDS011;9585;51.018;4.282;2023-07-20T04:45:42;12.88;;;9.00;;
18905;SDS011;9585;51.018;4.282;2023-07-20T04:48:10;12.30;;;8.15;;
18905;SDS011;9585;51.018;4.282;2023-07-20T04:50:40;13.32;;;9.27;;
18905;SDS011;9585;51.018;4.282;2023-07-20T04:53:09;10.73;;;7.70;;
18905;SDS011;9585;51.018;4.282;2023-07-20T04:55:37;8.18;;;7.10;;
18905;SDS011;9585;51.018;4.282;2023-07-20T04:58:06;7.85;;;5.80;;
18905;SDS011;9585;51.018;4.282;2023-07-20T05:00:34;7.75;;;6.13;;
18905;SDS011;9585;51.018;4.282;2023-07-20T05:03:02;9.93;;;7.97;;
18905;SDS011;9585;51.018;4.282;2023-07-20T05:05:31;9.43;;;7.85;;
18905;SDS011;9585;51.018;4.282;2023-07-20T05:07:59;10.15;;;7.18;;
18905;SDS011;9585;51.018;4.282;2023-07-20T05:10:26;9.93;;;7.90;;
18905;SDS011;9585;51.018;4.282;2023-07-20T05:12:54;10.55;;;8.50;;
18905;SDS011;9585;51.018;4.282;2023-07-20T05:15:23;7.57;;;6.68;;
18905;SDS011;9585;51.018;4.282;2023-07-20T05:17:51;9.77;;;6.40;;
18905;SDS011;9585;51.018;4.282;2023-07-20T05:20:19;8.85;;;7.32;;
18905;SDS011;9585;51.018;4.282;2023-07-20T05:22:46;8.00;;;6.53;;
18905;SDS011;9585;51.018;4.282;2023-07-20T05:25:15;10.15;;;7.38;;
18905;SDS011;9585;51.018;4.282;2023-07-20T05:27:44;10.10;;;7.82;;
18905;SDS011;9585;51.018;4.282;2023-07-20T05:30:12;8.57;;;7.30;;
18905;SDS011;9585;51.018;4.282;2023-07-20T05:32:41;10.38;;;7.72;;
18905;SDS011;9585;51.018;4.282;2023-07-20T05:35:10;8.98;;;6.45;;
18905;SDS011;9585;51.018;4.282;2023-07-20T05:37:38;6.30;;;5.65;;
18905;SDS011;9585;51.018;4.282;2023-07-20T05:40:06;7.53;;;6.32;;
18905;SDS011;9585;51.018;4.282;2023-07-20T05:42:36;6.75;;;5.20;;
18905;SDS011;9585;51.018;4.282;2023-07-20T05:45:04;7.10;;;6.32;;
18905;SDS011;9585;51.018;4.282;2023-07-20T05:47:33;9.57;;;7.38;;
18905;SDS011;9585;51.018;4.282;2023-07-20T05:50:02;7.85;;;6.32;;
18905;SDS011;9585;51.018;4.282;2023-07-20T05:52:30;7.57;;;6.13;;
18905;SDS011;9585;51.018;4.282;2023-07-20T05:54:58;5.53;;;4.90;;
18905;SDS011;9585;51.018;4.282;2023-07-20T05:57:26;6.97;;;5.30;;
18905;SDS011;9585;51.018;4.282;2023-07-20T05:59:53;6.75;;;5.30;;
18905;SDS011;9585;51.018;4.282;2023-07-20T06:02:21;6.25;;;5.22;;
18905;SDS011;9585;51.018;4.282;2023-07-20T06:04:49;5.28;;;4.78;;
18905;SDS011;9585;51.018;4.282;2023-07-20T06:07:18;5.78;;;5.00;;
18905;SDS011;9585;51.018;4.282;2023-07-20T06:09:46;6.68;;;5.72;;
18905;SDS011;9585;51.018;4.282;2023-07-20T06:12:13;4.65;;;4.10;;
18905;SDS011;9585;51.018;4.282;2023-07-20T06:14:41;6.68;;;5.07;;
18905;SDS011;9585;51.018;4.282;2023-07-20T06:17:09;5.35;;;4.28;;
18905;SDS011;9585;51.018;4.282;2023-07-20T06:19:36;6.80;;;5.47;;
18905;SDS011;9585;51.018;4.282;2023-07-20T06:22:04;5.07;;;4.57;;
18905;SDS011;9585;51.018;4.282;2023-07-20T06:24:34;7.10;;;5.47;;
18905;SDS011;9585;51.018;4.282;2023-07-20T06:27:01;5.72;;;4.57;;
18905;SDS011;9585;51.018;4.282;2023-07-20T06:29:31;5.20;;;3.90;;
18905;SDS011;9585;51.018;4.282;2023-07-20T06:31:59;4.90;;;4.00;;
18905;SDS011;9585;51.018;4.282;2023-07-20T06:34:26;4.47;;;3.40;;
18905;SDS011;9585;51.018;4.282;2023-07-20T06:36:55;4.18;;;2.95;;
18905;SDS011;9585;51.018;4.282;2023-07-20T06:39:22;4.82;;;3.60;;
18905;SDS011;9585;51.018;4.282;2023-07-20T06:41:51;3.78;;;3.38;;
18905;SDS011;9585;51.018;4.282;2023-07-20T06:44:19;5.35;;;3.53;;
18905;SDS011;9585;51.018;4.282;2023-07-20T06:46:47;4.65;;;3.38;;
18905;SDS011;9585;51.018;4.282;2023-07-20T06:49:24;4.57;;;3.03;;
18905;SDS011;9585;51.018;4.282;2023-07-20T06:51:52;5.10;;;2.97;;
18905;SDS011;9585;51.018;4.282;2023-07-20T06:54:20;3.65;;;3.10;;
18905;SDS011;9585;51.018;4.282;2023-07-20T06:56:48;3.97;;;2.95;;
18905;SDS011;9585;51.018;4.282;2023-07-20T06:59:17;4.00;;;2.40;;
18905;SDS011;9585;51.018;4.282;2023-07-20T07:01:45;4.15;;;2.40;;
18905;SDS011;9585;51.018;4.282;2023-07-20T07:04:12;2.75;;;1.90;;
18905;SDS011;9585;51.018;4.282;2023-07-20T07:06:40;2.38;;;2.00;;
18905;SDS011;9585;51.018;4.282;2023-07-20T07:09:08;3.08;;;2.78;;
18905;SDS011;9585;51.018;4.282;2023-07-20T07:11:36;2.40;;;2.10;;
18905;SDS011;9585;51.018;4.282;2023-07-20T07:14:04;2.33;;;2.13;;
18905;SDS011;9585;51.018;4.282;2023-07-20T07:16:33;2.15;;;1.70;;
18905;SDS011;9585;51.018;4.282;2023-07-20T07:19:01;1.90;;;1.50;;
18905;SDS011;9585;51.018;4.282;2023-07-20T07:21:28;2.75;;;1.73;;
18905;SDS011;9585;51.018;4.282;2023-07-20T07:23:56;2.40;;;1.80;;
18905;SDS011;9585;51.018;4.282;2023-07-20T07:26:25;1.67;;;1.40;;
18905;SDS011;9585;51.018;4.282;2023-07-20T07:28:53;1.33;;;1.20;;
18905;SDS011;9585;51.018;4.282;2023-07-20T07:31:21;1.80;;;1.15;;
18905;SDS011;9585;51.018;4.282;2023-07-20T07:33:50;1.70;;;1.55;;
18905;SDS011;9585;51.018;4.282;2023-07-20T07:36:18;2.10;;;1.50;;
18905;SDS011;9585;51.018;4.282;2023-07-20T07:38:45;3.05;;;2.00;;
18905;SDS011;9585;51.018;4.282;2023-07-20T07:41:13;2.13;;;1.60;;
18905;SDS011;9585;51.018;4.282;2023-07-20T07:43:41;2.50;;;1.52;;
18905;SDS011;9585;51.018;4.282;2023-07-20T07:46:09;1.42;;;1.20;;
18905;SDS011;9585;51.018;4.282;2023-07-20T07:48:37;1.73;;;1.25;;
18905;SDS011;9585;51.018;4.282;2023-07-20T07:51:06;3.08;;;1.30;;
18905;SDS011;9585;51.018;4.282;2023-07-20T07:53:34;1.88;;;1.00;;
18905;SDS011;9585;51.018;4.282;2023-07-20T07:56:03;1.67;;;1.10;;
18905;SDS011;9585;51.018;4.282;2023-07-20T07:58:33;2.75;;;1.10;;
18905;SDS011;9585;51.018;4.282;2023-07-20T08:01:02;1.77;;;0.90;;
18905;SDS011;9585;51.018;4.282;2023-07-20T08:03:29;0.93;;;0.82;;
18905;SDS011;9585;51.018;4.282;2023-07-20T08:05:57;1.38;;;0.80;;
18905;SDS011;9585;51.018;4.282;2023-07-20T08:08:27;2.10;;;0.98;;
18905;SDS011;9585;51.018;4.282;2023-07-20T08:10:55;3.08;;;1.10;;
18905;SDS011;9585;51.018;4.282;2023-07-20T08:13:23;1.17;;;0.82;;
18905;SDS011;9585;51.018;4.282;2023-07-20T08:15:51;1.25;;;0.68;;
18905;SDS011;9585;51.018;4.282;2023-07-20T08:18:19;1.40;;;0.80;;
18905;SDS011;9585;51.018;4.282;2023-07-20T08:20:47;0.80;;;0.65;;
18905;SDS011;9585;51.018;4.282;2023-07-20T08:23:15;1.30;;;0.80;;
18905;SDS011;9585;51.018;4.282;2023-07-20T08:25:44;1.85;;;0.80;;
18905;SDS011;9585;51.018;4.282;2023-07-20T08:28:13;1.35;;;0.70;;
18905;SDS011;9585;51.018;4.282;2023-07-20T08:30:43;1.60;;;0.50;;
18905;SDS011;9585;51.018;4.282;2023-07-20T08:33:12;1.25;;;0.70;;
18905;SDS011;9585;51.018;4.282;2023-07-20T08:35:41;1.10;;;0.60;;
18905;SDS011;9585;51.018;4.282;2023-07-20T08:38:09;1.23;;;0.50;;
18905;SDS011;9585;51.018;4.282;2023-07-20T08:40:39;0.82;;;0.63;;
18905;SDS011;9585;51.018;4.282;2023-07-20T08:43:09;1.25;;;0.60;;
18905;SDS011;9585;51.018;4.282;2023-07-20T08:45:38;0.70;;;0.60;;
18905;SDS011;9585;51.018;4.282;2023-07-20T08:48:07;0.70;;;0.40;;
18905;SDS011;9585;51.018;4.282;2023-07-20T08:50:36;1.15;;;0.52;;
18905;SDS011;9585;51.018;4.282;2023-07-20T08:53:05;1.75;;;0.70;;
18905;SDS011;9585;51.018;4.282;2023-07-20T08:55:33;1.20;;;0.70;;
18905;SDS011;9585;51.018;4.282;2023-07-20T08:58:02;1.00;;;0.50;;
18905;SDS011;9585;51.018;4.282;2023-07-20T09:00:34;1.98;;;0.55;;
18905;SDS011;9585;51.018;4.282;2023-07-20T09:03:03;0.63;;;0.50;;
18905;SDS011;9585;51.018;4.282;2023-07-20T09:05:32;0.80;;;0.55;;
18905;SDS011;9585;51.018;4.282;2023-07-20T09:08:00;0.77;;;0.57;;
18905;SDS011;9585;51.018;4.282;2023-07-20T09:10:29;0.65;;;0.60;;
18905;SDS011;9585;51.018;4.282;2023-07-20T09:12:57;1.05;;;0.63;;
18905;SDS011;9585;51.018;4.282;2023-07-20T09:15:25;1.75;;;0.77;;
18905;SDS011;9585;51.018;4.282;2023-07-20T09:17:54;1.25;;;0.63;;
18905;SDS011;9585;51.018;4.282;2023-07-20T09:20:22;0.98;;;0.60;;
18905;SDS011;9585;51.018;4.282;2023-07-20T09:22:50;0.90;;;0.57;;
18905;SDS011;9585;51.018;4.282;2023-07-20T09:25:19;1.15;;;0.65;;
18905;SDS011;9585;51.018;4.282;2023-07-20T09:27:47;0.93;;;0.63;;
18905;SDS011;9585;51.018;4.282;2023-07-20T09:30:16;1.08;;;0.63;;
18905;SDS011;9585;51.018;4.282;2023-07-20T09:32:44;1.05;;;0.73;;
18905;SDS011;9585;51.018;4.282;2023-07-20T09:35:14;0.70;;;0.68;;
18905;SDS011;9585;51.018;4.282;2023-07-20T09:37:49;2.25;;;1.00;;
18905;SDS011;9585;51.018;4.282;2023-07-20T09:40:19;1.48;;;0.77;;
18905;SDS011;9585;51.018;4.282;2023-07-20T09:42:47;0.80;;;0.77;;
18905;SDS011;9585;51.018;4.282;2023-07-20T09:45:18;1.40;;;0.80;;
18905;SDS011;9585;51.018;4.282;2023-07-20T09:47:46;0.70;;;0.60;;
18905;SDS011;9585;51.018;4.282;2023-07-20T09:50:15;1.25;;;0.60;;
18905;SDS011;9585;51.018;4.282;2023-07-20T09:52:43;0.88;;;0.50;;
18905;SDS011;9585;51.018;4.282;2023-07-20T09:55:12;1.05;;;0.55;;
18905;SDS011;9585;51.018;4.282;2023-07-20T09:57:40;0.80;;;0.50;;
18905;SDS011;9585;51.018;4.282;2023-07-20T10:00:08;0.70;;;0.60;;
18905;SDS011;9585;51.018;4.282;2023-07-20T10:02:41;1.35;;;0.60;;
18905;SDS011;9585;51.018;4.282;2023-07-20T10:05:11;1.23;;;0.55;;
18905;SDS011;9585;51.018;4.282;2023-07-20T10:07:47;1.27;;;0.57;;
18905;SDS011;9585;51.018;4.282;2023-07-20T10:10:16;1.50;;;0.90;;
18905;SDS011;9585;51.018;4.282;2023-07-20T10:12:45;0.90;;;0.55;;
18905;SDS011;9585;51.018;4.282;2023-07-20T10:15:18;2.60;;;0.82;;
18905;SDS011;9585;51.018;4.282;2023-07-20T10:18:02;0.82;;;0.75;;
18905;SDS011;9585;51.018;4.282;2023-07-20T10:20:36;1.27;;;1.10;;
18905;SDS011;9585;51.018;4.282;2023-07-20T10:23:09;1.63;;;1.00;;
18905;SDS011;9585;51.018;4.282;2023-07-20T10:25:37;0.90;;;0.80;;
18905;SDS011;9585;51.018;4.282;2023-07-20T10:28:06;1.30;;;0.70;;
18905;SDS011;9585;51.018;4.282;2023-07-20T10:30:34;1.30;;;0.93;;
18905;SDS011;9585;51.018;4.282;2023-07-20T10:33:03;1.10;;;0.63;;
18905;SDS011;9585;51.018;4.282;2023-07-20T10:35:31;1.75;;;0.80;;
18905;SDS011;9585;51.018;4.282;2023-07-20T10:38:19;1.63;;;0.82;;
18905;SDS011;9585;51.018;4.282;2023-07-20T10:40:56;0.50;;;0.50;;
18905;SDS011;9585;51.018;4.282;2023-07-20T10:43:24;1.15;;;0.75;;
18905;SDS011;9585;51.018;4.282;2023-07-20T10:45:54;0.95;;;0.85;;
18905;SDS011;9585;51.018;4.282;2023-07-20T10:48:22;1.02;;;0.75;;
18905;SDS011;9585;51.018;4.282;2023-07-20T10:51:09;0.93;;;0.70;;
18905;SDS011;9585;51.018;4.282;2023-07-20T10:53:42;1.25;;;1.00;;
18905;SDS011;9585;51.018;4.282;2023-07-20T10:56:11;0.90;;;0.77;;
18905;SDS011;9585;51.018;4.282;2023-07-20T10:58:40;1.17;;;1.08;;
18905;SDS011;9585;51.018;4.282;2023-07-20T11:01:08;1.77;;;1.00;;
18905;SDS011;9585;51.018;4.282;2023-07-20T11:03:39;0.80;;;0.80;;
18905;SDS011;9585;51.018;4.282;2023-07-20T11:09:09;1.65;;;1.30;;
18905;SDS011;9585;51.018;4.282;2023-07-20T11:11:40;1.98;;;1.10;;
18905;SDS011;9585;51.018;4.282;2023-07-20T11:14:08;1.42;;;1.20;;
18905;SDS011;9585;51.018;4.282;2023-07-20T11:16:40;1.85;;;1.10;;
18905;SDS011;9585;51.018;4.282;2023-07-20T11:19:15;1.00;;;0.90;;
18905;SDS011;9585;51.018;4.282;2023-07-20T11:21:44;0.98;;;0.93;;
18905;SDS011;9585;51.018;4.282;2023-07-20T11:24:15;1.40;;;1.08;;
18905;SDS011;9585;51.018;4.282;2023-07-20T11:26:43;0.90;;;0.85;;
18905;SDS011;9585;51.018;4.282;2023-07-20T11:29:11;1.35;;;1.10;;
18905;SDS011;9585;51.018;4.282;2023-07-20T11:31:40;1.13;;;1.02;;
18905;SDS011;9585;51.018;4.282;2023-07-20T11:34:10;1.23;;;1.13;;
18905;SDS011;9585;51.018;4.282;2023-07-20T11:36:39;1.13;;;0.90;;
18905;SDS011;9585;51.018;4.282;2023-07-20T11:39:08;1.38;;;0.98;;
18905;SDS011;9585;51.018;4.282;2023-07-20T11:41:39;1.00;;;1.00;;
18905;SDS011;9585;51.018;4.282;2023-07-20T11:44:11;1.10;;;1.00;;
18905;SDS011;9585;51.018;4.282;2023-07-20T11:46:40;1.50;;;1.40;;
18905;SDS011;9585;51.018;4.282;2023-07-20T11:49:09;2.75;;;1.30;;
18905;SDS011;9585;51.018;4.282;2023-07-20T11:51:38;1.60;;;1.40;;
18905;SDS011;9585;51.018;4.282;2023-07-20T11:54:07;1.48;;;1.33;;
18905;SDS011;9585;51.018;4.282;2023-07-20T11:56:37;1.77;;;1.67;;
18905;SDS011;9585;51.018;4.282;2023-07-20T11:59:09;1.63;;;1.52;;
18905;SDS011;9585;51.018;4.282;2023-07-20T12:01:37;1.50;;;1.40;;
18905;SDS011;9585;51.018;4.282;2023-07-20T12:04:05;2.05;;;1.20;;
18905;SDS011;9585;51.018;4.282;2023-07-20T12:06:33;1.30;;;1.20;;
18905;SDS011;9585;51.018;4.282;2023-07-20T12:09:01;1.60;;;1.50;;
18905;SDS011;9585;51.018;4.282;2023-07-20T12:11:32;1.48;;;1.38;;
18905;SDS011;9585;51.018;4.282;2023-07-20T12:14:03;1.63;;;1.50;;
18905;SDS011;9585;51.018;4.282;2023-07-20T12:16:31;1.27;;;1.10;;
18905;SDS011;9585;51.018;4.282;2023-07-20T12:18:59;2.42;;;1.17;;
18905;SDS011;9585;51.018;4.282;2023-07-20T12:21:28;1.40;;;0.95;;
18905;SDS011;9585;51.018;4.282;2023-07-20T12:23:56;1.30;;;1.20;;
18905;SDS011;9585;51.018;4.282;2023-07-20T12:26:25;1.02;;;0.90;;
18905;SDS011;9585;51.018;4.282;2023-07-20T12:28:55;1.45;;;1.30;;
18905;SDS011;9585;51.018;4.282;2023-07-20T12:31:25;1.88;;;1.33;;
18905;SDS011;9585;51.018;4.282;2023-07-20T12:33:53;3.00;;;1.40;;
18905;SDS011;9585;51.018;4.282;2023-07-20T12:36:22;3.03;;;1.70;;
18905;SDS011;9585;51.018;4.282;2023-07-20T12:38:50;1.70;;;1.60;;
18905;SDS011;9585;51.018;4.282;2023-07-20T12:41:18;1.40;;;1.30;;
18905;SDS011;9585;51.018;4.282;2023-07-20T12:43:46;2.38;;;1.40;;
18905;SDS011;9585;51.018;4.282;2023-07-20T12:46:15;1.40;;;1.30;;
18905;SDS011;9585;51.018;4.282;2023-07-20T12:48:45;1.70;;;1.60;;
18905;SDS011;9585;51.018;4.282;2023-07-20T12:51:12;2.13;;;1.50;;
18905;SDS011;9585;51.018;4.282;2023-07-20T12:53:40;1.83;;;1.60;;
18905;SDS011;9585;51.018;4.282;2023-07-20T12:56:08;1.45;;;1.33;;
18905;SDS011;9585;51.018;4.282;2023-07-20T12:58:36;1.50;;;1.40;;
18905;SDS011;9585;51.018;4.282;2023-07-20T13:01:04;1.50;;;1.40;;
18905;SDS011;9585;51.018;4.282;2023-07-20T13:03:32;1.60;;;1.50;;
18905;SDS011;9585;51.018;4.282;2023-07-20T13:06:01;1.70;;;1.60;;
18905;SDS011;9585;51.018;4.282;2023-07-20T13:08:29;1.60;;;1.50;;
18905;SDS011;9585;51.018;4.282;2023-07-20T13:10:57;1.77;;;1.65;;
18905;SDS011;9585;51.018;4.282;2023-07-20T13:13:26;1.60;;;1.50;;
18905;SDS011;9585;51.018;4.282;2023-07-20T13:15:54;1.77;;;1.55;;
18905;SDS011;9585;51.018;4.282;2023-07-20T13:18:22;1.70;;;1.60;;
18905;SDS011;9585;51.018;4.282;2023-07-20T13:20:50;1.98;;;1.88;;
18905;SDS011;9585;51.018;4.282;2023-07-20T13:23:19;1.77;;;1.67;;
18905;SDS011;9585;51.018;4.282;2023-07-20T13:25:47;1.90;;;1.80;;
18905;SDS011;9585;51.018;4.282;2023-07-20T13:28:17;2.25;;;2.05;;
18905;SDS011;9585;51.018;4.282;2023-07-20T13:30:45;2.80;;;1.73;;
18905;SDS011;9585;51.018;4.282;2023-07-20T13:33:12;1.90;;;1.80;;
18905;SDS011;9585;51.018;4.282;2023-07-20T13:35:40;1.90;;;1.80;;
18905;SDS011;9585;51.018;4.282;2023-07-20T13:38:08;2.35;;;2.15;;
18905;SDS011;9585;51.018;4.282;2023-07-20T13:40:37;1.85;;;1.75;;
18905;SDS011;9585;51.018;4.282;2023-07-20T13:43:05;1.98;;;1.75;;
18905;SDS011;9585;51.018;4.282;2023-07-20T13:45:32;2.05;;;1.60;;
18905;SDS011;9585;51.018;4.282;2023-07-20T13:48:00;1.80;;;1.60;;
18905;SDS011;9585;51.018;4.282;2023-07-20T13:50:28;1.73;;;1.52;;
18905;SDS011;9585;51.018;4.282;2023-07-20T13:52:56;1.60;;;1.50;;
18905;SDS011;9585;51.018;4.282;2023-07-20T13:55:22;1.73;;;1.30;;
18905;SDS011;9585;51.018;4.282;2023-07-20T13:57:52;1.50;;;1.20;;
18905;SDS011;9585;51.018;4.282;2023-07-20T14:00:19;1.20;;;1.10;;
18905;SDS011;9585;51.018;4.282;2023-07-20T14:02:47;1.40;;;1.30;;
18905;SDS011;9585;51.018;4.282;2023-07-20T14:05:15;1.20;;;1.10;;
18905;SDS011;9585;51.018;4.282;2023-07-20T14:07:44;1.20;;;1.10;;
18905;SDS011;9585;51.018;4.282;2023-07-20T14:10:12;1.70;;;1.00;;
18905;SDS011;9585;51.018;4.282;2023-07-20T14:12:40;1.65;;;1.55;;
18905;SDS011;9585;51.018;4.282;2023-07-20T14:15:10;1.33;;;1.23;;
18905;SDS011;9585;51.018;4.282;2023-07-20T14:17:38;1.48;;;1.20;;
18905;SDS011;9585;51.018;4.282;2023-07-20T14:20:06;2.22;;;1.30;;
18905;SDS011;9585;51.018;4.282;2023-07-20T14:22:34;1.20;;;1.10;;
18905;SDS011;9585;51.018;4.282;2023-07-20T14:25:02;2.38;;;1.42;;
18905;SDS011;9585;51.018;4.282;2023-07-20T14:27:30;1.38;;;1.27;;
18905;SDS011;9585;51.018;4.282;2023-07-20T14:29:58;1.55;;;0.95;;
18905;SDS011;9585;51.018;4.282;2023-07-20T14:32:28;1.27;;;0.90;;
18905;SDS011;9585;51.018;4.282;2023-07-20T14:34:56;1.00;;;0.90;;
18905;SDS011;9585;51.018;4.282;2023-07-20T14:37:24;1.05;;;0.73;;
18905;SDS011;9585;51.018;4.282;2023-07-20T14:39:52;0.80;;;0.77;;
18905;SDS011;9585;51.018;4.282;2023-07-20T14:42:19;1.27;;;0.82;;
18905;SDS011;9585;51.018;4.282;2023-07-20T14:44:47;1.52;;;0.90;;
18905;SDS011;9585;51.018;4.282;2023-07-20T14:47:15;1.25;;;0.90;;
18905;SDS011;9585;51.018;4.282;2023-07-20T14:49:44;0.80;;;0.80;;
18905;SDS011;9585;51.018;4.282;2023-07-20T14:52:12;1.15;;;0.82;;
18905;SDS011;9585;51.018;4.282;2023-07-20T14:54:40;1.08;;;0.80;;
18905;SDS011;9585;51.018;4.282;2023-07-20T14:57:08;2.25;;;0.88;;
18905;SDS011;9585;51.018;4.282;2023-07-20T14:59:39;1.42;;;1.00;;
18905;SDS011;9585;51.018;4.282;2023-07-20T15:02:07;2.05;;;1.10;;
18905;SDS011;9585;51.018;4.282;2023-07-20T15:04:35;1.30;;;1.20;;
18905;SDS011;9585;51.018;4.282;2023-07-20T15:07:05;1.40;;;1.13;;
18905;SDS011;9585;51.018;4.282;2023-07-20T15:09:33;1.30;;;1.20;;
18905;SDS011;9585;51.018;4.282;2023-07-20T15:12:00;2.53;;;1.30;;
18905;SDS011;9585;51.018;4.282;2023-07-20T15:14:28;1.30;;;1.20;;
18905;SDS011;9585;51.018;4.282;2023-07-20T15:16:56;1.70;;;1.60;;